Time;durP1;ratioP1;P1;durP2;ratioP2;P2;SDS_P1;SDS_P2;PMS_P1;PMS_P2;Temp;Humidity;BMP_temperature;BMP_pressure;BME280_temperature;BME280_humidity;BME280_pressure;Samples;Min_cycle;Max_cycle;Signal;HPM_P1;HPM_P2
2022/05/26 00:01:13;;;;;;;11.77;7.50;;;;;;;;;;5018849;28;20045;-75
2022/05/26 00:03:42;;;;;;;11.18;6.18;;;;;;;;;;5020227;28;20061;-75
2022/05/26 00:06:09;;;;;;;8.85;5.43;;;;;;;;;;5018613;28;20439;-75
2022/05/26 00:08:36;;;;;;;7.78;4.80;;;;;;;;;;5020087;28;20046;-75
2022/05/26 00:11:03;;;;;;;8.07;4.07;;;;;;;;;;5013708;28;20051;-75
2022/05/26 00:13:29;;;;;;;10.82;4.30;;;;;;;;;;5000338;28;20049;-75
2022/05/26 00:15:55;;;;;;;7.45;3.20;;;;;;;;;;5002948;28;20038;-75
2022/05/26 00:18:21;;;;;;;4.55;2.50;;;;;;;;;;5016775;28;20100;-75
2022/05/26 00:20:47;;;;;;;6.03;2.50;;;;;;;;;;5014788;28;20554;-75
2022/05/26 00:23:13;;;;;;;4.70;1.95;;;;;;;;;;5014916;28;20038;-75
2022/05/26 00:25:39;;;;;;;5.00;1.90;;;;;;;;;;5016722;28;20042;-74
2022/05/26 00:28:05;;;;;;;5.32;1.85;;;;;;;;;;5020757;28;20042;-75
2022/05/26 00:30:32;;;;;;;4.75;1.40;;;;;;;;;;5020582;28;20042;-74
2022/05/26 00:32:59;;;;;;;4.03;1.42;;;;;;;;;;5016484;28;20057;-74
2022/05/26 00:35:25;;;;;;;5.68;1.60;;;;;;;;;;5020484;28;20053;-74
2022/05/26 00:37:51;;;;;;;4.55;1.67;;;;;;;;;;5019726;28;20050;-74
2022/05/26 00:40:18;;;;;;;4.60;1.80;;;;;;;;;;5018582;28;20050;-75
2022/05/26 00:42:45;;;;;;;4.82;2.20;;;;;;;;;;5020631;28;20088;-74
2022/05/26 00:45:11;;;;;;;6.18;3.00;;;;;;;;;;5018627;28;20050;-75
2022/05/26 00:47:44;;;;;;;7.45;3.20;;;;;;;;;;5019465;28;20516;-74
2022/05/26 00:50:19;;;;;;;5.88;3.22;;;;;;;;;;5019937;28;20575;-75
2022/05/26 00:52:47;;;;;;;5.78;3.55;;;;;;;;;;5012382;28;20037;-74
2022/05/26 00:55:26;;;;;;;8.70;4.40;;;;;;;;;;5020463;28;20049;-74
2022/05/26 00:58:12;;;;;;;9.00;4.70;;;;;;;;;;5018533;28;20132;-75
2022/05/26 01:00:39;;;;;;;10.77;5.85;;;;;;;;;;5020741;28;20042;-74
2022/05/26 01:03:05;;;;;;;9.48;6.32;;;;;;;;;;5016696;28;20448;-75
2022/05/26 01:05:43;;;;;;;12.50;7.63;;;;;;;;;;5018964;28;20242;-75
2022/05/26 01:08:12;;;;;;;17.02;8.85;;;;;;;;;;5021382;28;20066;-75
2022/05/26 01:10:38;;;;;;;16.10;9.63;;;;;;;;;;5013706;28;20042;-74
2022/05/26 01:13:04;;;;;;;15.60;10.20;;;;;;;;;;5011254;28;20416;-75
2022/05/26 01:15:34;;;;;;;17.23;10.95;;;;;;;;;;5018115;28;20045;-75
2022/05/26 01:18:03;;;;;;;19.52;11.88;;;;;;;;;;5017410;28;20488;-74
2022/05/26 01:20:50;;;;;;;20.08;12.10;;;;;;;;;;5015853;28;20500;-74
2022/05/26 01:23:27;;;;;;;20.52;12.98;;;;;;;;;;5009612;28;20057;-73
2022/05/26 01:26:12;;;;;;;19.30;13.00;;;;;;;;;;5015287;28;20134;-74
2022/05/26 01:28:43;;;;;;;20.50;12.75;;;;;;;;;;5016493;28;20077;-74
2022/05/26 01:31:21;;;;;;;24.70;14.73;;;;;;;;;;5019105;28;20053;-74
2022/05/26 01:33:56;;;;;;;21.25;14.20;;;;;;;;;;5017188;28;20092;-74
2022/05/26 01:36:29;;;;;;;23.92;14.43;;;;;;;;;;5015446;28;20054;-74
2022/05/26 01:39:03;;;;;;;23.98;14.20;;;;;;;;;;5017836;28;20042;-74
2022/05/26 01:41:41;;;;;;;22.80;13.13;;;;;;;;;;5016716;28;20052;-75
2022/05/26 01:44:13;;;;;;;23.20;13.77;;;;;;;;;;5017719;28;20038;-74
2022/05/26 01:46:40;;;;;;;26.98;15.45;;;;;;;;;;5016627;28;20042;-74
2022/05/26 01:49:15;;;;;;;23.38;14.85;;;;;;;;;;5018920;28;20049;-74
2022/05/26 01:52:04;;;;;;;24.75;15.68;;;;;;;;;;5015876;28;20053;-75
2022/05/26 01:54:33;;;;;;;25.95;15.23;;;;;;;;;;5010394;28;20046;-75
2022/05/26 01:57:05;;;;;;;27.75;15.02;;;;;;;;;;5016820;28;20042;-74
2022/05/26 01:59:37;;;;;;;30.20;15.65;;;;;;;;;;5018954;28;20046;-75
2022/05/26 02:02:06;;;;;;;30.75;16.35;;;;;;;;;;5016772;28;20046;-74
2022/05/26 02:04:43;;;;;;;28.40;16.35;;;;;;;;;;4998878;28;20058;-75
2022/05/26 02:07:16;;;;;;;27.15;15.73;;;;;;;;;;5007525;28;20054;-74
2022/05/26 02:09:43;;;;;;;31.95;15.38;;;;;;;;;;5017490;28;20408;-74
2022/05/26 02:12:27;;;;;;;29.83;15.43;;;;;;;;;;5011370;28;20469;-74
2022/05/26 02:14:56;;;;;;;29.45;16.75;;;;;;;;;;5014218;28;20514;-74
2022/05/26 02:17:26;;;;;;;34.80;17.02;;;;;;;;;;5016036;28;20041;-74
2022/05/26 02:19:59;;;;;;;37.90;17.55;;;;;;;;;;5007097;28;20092;-75
2022/05/26 02:22:28;;;;;;;33.28;17.35;;;;;;;;;;5016109;28;20050;-74
2022/05/26 02:24:57;;;;;;;34.03;16.92;;;;;;;;;;5012955;28;20400;-74
2022/05/26 02:27:29;;;;;;;29.13;15.95;;;;;;;;;;5014384;28;20072;-74
2022/05/26 02:30:01;;;;;;;31.05;16.92;;;;;;;;;;5010067;28;20041;-74
2022/05/26 02:32:38;;;;;;;28.25;14.82;;;;;;;;;;5019558;28;20050;-74
2022/05/26 02:35:06;;;;;;;29.48;16.08;;;;;;;;;;5016865;28;20042;-74
2022/05/26 02:37:34;;;;;;;37.55;17.77;;;;;;;;;;5000801;28;20042;-74
2022/05/26 02:40:00;;;;;;;34.60;15.93;;;;;;;;;;4999631;28;20579;-74
2022/05/26 02:42:27;;;;;;;34.78;17.52;;;;;;;;;;5011872;28;20046;-74
2022/05/26 02:44:53;;;;;;;34.67;16.92;;;;;;;;;;5017799;28;20041;-74
2022/05/26 02:47:38;;;;;;;32.45;17.40;;;;;;;;;;5019934;28;20042;-74
2022/05/26 02:50:24;;;;;;;32.95;16.60;;;;;;;;;;5018642;28;20034;-75
2022/05/26 02:52:53;;;;;;;36.35;16.90;;;;;;;;;;5000199;28;20054;-74
2022/05/26 02:55:23;;;;;;;39.95;17.13;;;;;;;;;;5006241;28;20053;-74
2022/05/26 02:57:50;;;;;;;33.47;16.23;;;;;;;;;;5017471;28;20092;-74
2022/05/26 03:00:25;;;;;;;38.15;17.95;;;;;;;;;;5018947;28;20300;-76
2022/05/26 03:02:56;;;;;;;35.55;16.05;;;;;;;;;;5019655;28;20125;-74
2022/05/26 03:05:22;;;;;;;;;;;;;;;;;;5020373;28;20629;-75
2022/05/26 03:07:50;;;;;;;34.10;16.15;;;;;;;;;;5009152;28;19922;-75
2022/05/26 03:10:17;;;;;;;33.75;16.35;;;;;;;;;;5003256;28;20033;-74
2022/05/26 03:12:43;;;;;;;31.33;15.23;;;;;;;;;;5019222;28;20069;-74
2022/05/26 03:15:10;;;;;;;37.05;16.80;;;;;;;;;;5019142;28;20189;-75
2022/05/26 03:17:36;;;;;;;37.33;17.42;;;;;;;;;;5018835;28;20038;-75
2022/05/26 03:20:02;;;;;;;36.25;17.75;;;;;;;;;;5008651;28;20080;-75
2022/05/26 03:22:28;;;;;;;32.45;14.98;;;;;;;;;;5019446;28;20481;-75
2022/05/26 03:24:54;;;;;;;35.60;17.95;;;;;;;;;;5015270;28;20038;-75
2022/05/26 03:27:20;;;;;;;34.97;15.98;;;;;;;;;;5014403;28;20521;-75
2022/05/26 03:29:46;;;;;;;33.63;17.08;;;;;;;;;;5014757;28;20045;-75
2022/05/26 03:32:12;;;;;;;34.05;17.27;;;;;;;;;;5015097;28;20046;-75
2022/05/26 03:42:53;;;;;;;35.45;15.25;;;;;;;;;;5016780;28;20050;-75
2022/05/26 03:45:21;;;;;;;30.40;14.80;;;;;;;;;;5015137;28;20052;-75
2022/05/26 03:47:47;;;;;;;31.15;13.93;;;;;;;;;;5017751;28;20054;-75
2022/05/26 03:50:13;;;;;;;37.17;13.85;;;;;;;;;;5017827;28;20069;-75
2022/05/26 03:52:39;;;;;;;37.08;15.70;;;;;;;;;;5017730;28;20048;-75
2022/05/26 03:55:06;;;;;;;33.42;13.45;;;;;;;;;;5012904;28;20041;-74
2022/05/26 03:57:32;;;;;;;35.58;12.55;;;;;;;;;;5017696;28;20041;-74
2022/05/26 03:59:58;;;;;;;34.10;12.10;;;;;;;;;;5015270;28;20042;-75
2022/05/26 04:02:25;;;;;;;28.02;11.10;;;;;;;;;;5010901;28;20128;-75
2022/05/26 04:04:51;;;;;;;31.33;11.13;;;;;;;;;;5017701;28;20511;-75
2022/05/26 04:07:17;;;;;;;33.10;9.88;;;;;;;;;;5016756;28;20046;-74
2022/05/26 04:09:43;;;;;;;32.58;9.77;;;;;;;;;;5015402;28;20057;-74
2022/05/26 04:12:09;;;;;;;29.45;9.85;;;;;;;;;;4989407;28;20050;-73
2022/05/26 04:14:35;;;;;;;27.77;8.30;;;;;;;;;;5013657;28;20045;-73
2022/05/26 04:17:01;;;;;;;31.48;9.25;;;;;;;;;;5016072;28;20050;-73
2022/05/26 04:19:27;;;;;;;26.60;8.35;;;;;;;;;;5015858;28;20081;-75
2022/05/26 04:24:38;;;;;;;27.13;7.40;;;;;;;;;;5016754;28;20515;-75
2022/05/26 04:27:04;;;;;;;25.17;6.82;;;;;;;;;;5016671;28;20085;-75
2022/05/26 04:29:31;;;;;;;30.13;8.18;;;;;;;;;;5013757;28;20045;-75
2022/05/26 04:31:57;;;;;;;29.88;7.40;;;;;;;;;;5004835;28;20093;-75
2022/05/26 04:34:23;;;;;;;25.92;7.45;;;;;;;;;;5000646;28;20079;-76
2022/05/26 04:36:49;;;;;;;33.17;7.25;;;;;;;;;;4996802;28;20424;-75
2022/05/26 04:39:16;;;;;;;30.70;7.38;;;;;;;;;;5009259;28;20547;-75
2022/05/26 04:41:42;;;;;;;33.03;7.22;;;;;;;;;;5016251;28;20447;-76
2022/05/26 04:44:11;;;;;;;28.63;6.50;;;;;;;;;;5015942;28;20053;-76
2022/05/26 04:46:38;;;;;;;28.58;6.57;;;;;;;;;;5014030;28;20046;-76
2022/05/26 04:49:04;;;;;;;27.90;6.35;;;;;;;;;;5016565;28;20085;-76
2022/05/26 04:51:30;;;;;;;26.92;6.18;;;;;;;;;;5015166;28;20042;-76
2022/05/26 04:53:56;;;;;;;26.77;5.95;;;;;;;;;;5014570;28;20535;-75
2022/05/26 04:56:23;;;;;;;26.77;6.05;;;;;;;;;;5015241;28;20081;-74
2022/05/26 04:58:50;;;;;;;18.75;5.20;;;;;;;;;;5014250;28;20112;-74
2022/05/26 05:01:17;;;;;;;24.70;5.50;;;;;;;;;;5003384;28;20050;-75
2022/05/26 05:03:44;;;;;;;27.48;5.72;;;;;;;;;;4996199;28;20177;-75
2022/05/26 05:06:10;;;;;;;29.08;5.88;;;;;;;;;;5010161;28;20046;-74
2022/05/26 05:08:36;;;;;;;24.88;5.53;;;;;;;;;;5014482;28;20128;-75
2022/05/26 05:11:02;;;;;;;27.08;5.60;;;;;;;;;;5014142;28;20081;-75
2022/05/26 05:13:28;;;;;;;25.95;5.80;;;;;;;;;;5014787;28;20037;-75
2022/05/26 05:15:58;;;;;;;22.25;4.82;;;;;;;;;;5015531;28;20443;-75
2022/05/26 05:18:24;;;;;;;24.23;5.28;;;;;;;;;;5015164;28;20045;-75
2022/05/26 05:20:53;;;;;;;20.73;5.22;;;;;;;;;;5015056;28;20525;-76
2022/05/26 05:23:19;;;;;;;26.02;5.50;;;;;;;;;;5012381;28;20136;-75
2022/05/26 05:25:47;;;;;;;22.63;5.53;;;;;;;;;;5013923;28;20049;-76
2022/05/26 05:28:22;;;;;;;21.08;4.65;;;;;;;;;;5015120;28;20081;-75
2022/05/26 05:30:54;;;;;;;15.55;3.60;;;;;;;;;;5013329;28;20103;-76
2022/05/26 05:33:22;;;;;;;17.58;3.55;;;;;;;;;;5012384;28;20069;-76
2022/05/26 05:35:55;;;;;;;11.13;3.00;;;;;;;;;;5013333;28;20048;-76
2022/05/26 05:38:21;;;;;;;20.13;3.95;;;;;;;;;;5009797;28;20037;-75
2022/05/26 05:40:48;;;;;;;12.55;2.38;;;;;;;;;;5012765;28;20048;-75
2022/05/26 05:43:14;;;;;;;9.82;2.20;;;;;;;;;;5013824;28;20077;-76
2022/05/26 05:45:41;;;;;;;8.30;2.13;;;;;;;;;;5011002;28;20044;-75
2022/05/26 05:48:08;;;;;;;10.40;2.20;;;;;;;;;;5013713;28;20050;-76
2022/05/26 05:50:34;;;;;;;9.18;1.95;;;;;;;;;;5012156;28;20056;-76
2022/05/26 05:53:00;;;;;;;10.85;1.80;;;;;;;;;;5013633;28;20053;-76
2022/05/26 05:55:27;;;;;;;8.23;1.65;;;;;;;;;;5009820;28;20046;-76
2022/05/26 05:57:53;;;;;;;9.75;1.85;;;;;;;;;;5013831;28;20054;-76
2022/05/26 06:00:19;;;;;;;10.35;1.80;;;;;;;;;;5012917;28;20124;-75
2022/05/26 06:02:45;;;;;;;8.85;1.52;;;;;;;;;;5006863;28;20480;-76
2022/05/26 06:05:11;;;;;;;7.45;1.60;;;;;;;;;;5007246;28;20050;-76
2022/05/26 06:07:40;;;;;;;8.02;1.60;;;;;;;;;;4994730;28;20064;-75
2022/05/26 06:10:07;;;;;;;8.73;1.88;;;;;;;;;;4997546;28;20042;-75
2022/05/26 06:12:33;;;;;;;10.68;1.70;;;;;;;;;;5013432;28;20065;-75
2022/05/26 06:14:59;;;;;;;7.68;1.80;;;;;;;;;;5013306;28;20519;-76
2022/05/26 06:17:25;;;;;;;8.02;1.77;;;;;;;;;;5005572;28;20045;-76
2022/05/26 06:19:51;;;;;;;6.07;1.40;;;;;;;;;;4994205;28;20465;-76
2022/05/26 06:22:19;;;;;;;6.50;1.70;;;;;;;;;;5007070;28;20081;-75
2022/05/26 06:24:45;;;;;;;6.60;1.13;;;;;;;;;;5016535;28;20394;-76
2022/05/26 06:29:57;;;;;;;8.50;1.45;;;;;;;;;;5012916;28;20124;-75
2022/05/26 06:37:54;;;;;;;8.48;1.30;;;;;;;;;;5009928;28;20137;-75
2022/05/26 06:40:20;;;;;;;5.70;1.05;;;;;;;;;;5012301;28;20081;-75
2022/05/26 06:42:47;;;;;;;6.25;1.30;;;;;;;;;;5007703;28;20054;-75
2022/05/26 06:45:14;;;;;;;8.57;1.60;;;;;;;;;;5006037;28;20053;-76
2022/05/26 06:47:40;;;;;;;6.53;1.58;;;;;;;;;;5011331;28;20471;-76
2022/05/26 06:50:07;;;;;;;6.78;1.30;;;;;;;;;;5011270;28;20089;-76
2022/05/26 06:52:33;;;;;;;6.18;1.10;;;;;;;;;;5010439;28;20060;-73
2022/05/26 06:54:59;;;;;;;8.98;1.48;;;;;;;;;;5012723;28;20045;-76
2022/05/26 06:57:25;;;;;;;6.05;1.20;;;;;;;;;;5011321;28;20426;-75
2022/05/26 06:59:51;;;;;;;6.35;1.08;;;;;;;;;;5012498;28;20125;-77
2022/05/26 07:02:17;;;;;;;8.73;0.95;;;;;;;;;;5012618;28;20576;-76
2022/05/26 07:04:44;;;;;;;3.42;0.80;;;;;;;;;;5010415;28;20053;-75
2022/05/26 07:07:12;;;;;;;5.63;1.00;;;;;;;;;;5012828;28;20053;-74
2022/05/26 07:09:38;;;;;;;9.45;1.40;;;;;;;;;;5013131;28;20042;-75
2022/05/26 07:12:05;;;;;;;6.88;0.98;;;;;;;;;;5011780;28;20053;-75
2022/05/26 07:14:31;;;;;;;6.22;1.15;;;;;;;;;;5011645;28;20050;-75
2022/05/26 07:16:57;;;;;;;6.40;1.00;;;;;;;;;;5015917;28;20046;-76
2022/05/26 07:19:23;;;;;;;8.40;1.38;;;;;;;;;;5014035;28;20148;-76
2022/05/26 07:21:49;;;;;;;6.32;1.20;;;;;;;;;;5007905;28;20121;-76
2022/05/26 07:24:19;;;;;;;7.18;1.02;;;;;;;;;;5008912;28;20504;-76
2022/05/26 07:26:46;;;;;;;6.82;1.15;;;;;;;;;;5014117;28;20054;-76
2022/05/26 07:29:12;;;;;;;7.35;1.20;;;;;;;;;;4995138;28;20125;-75
2022/05/26 07:31:38;;;;;;;6.75;1.00;;;;;;;;;;5009521;28;20050;-75
2022/05/26 07:34:04;;;;;;;5.43;1.13;;;;;;;;;;5015464;28;20034;-75
2022/05/26 07:42:07;;;;;;;5.85;0.93;;;;;;;;;;5013060;28;20045;-75
2022/05/26 07:44:35;;;;;;;5.10;0.95;;;;;;;;;;5012410;28;20125;-76
2022/05/26 07:47:01;;;;;;;6.45;1.00;;;;;;;;;;5013721;28;20049;-73
2022/05/26 07:49:27;;;;;;;4.82;0.80;;;;;;;;;;5014945;28;20042;-75
2022/05/26 07:51:53;;;;;;;6.60;1.17;;;;;;;;;;5014663;28;20054;-74
2022/05/26 07:54:19;;;;;;;7.82;0.90;;;;;;;;;;5014816;28;20061;-74
2022/05/26 07:56:46;;;;;;;7.55;1.05;;;;;;;;;;5014172;28;20123;-73
2022/05/26 07:59:12;;;;;;;5.90;0.95;;;;;;;;;;5011007;28;20511;-74
2022/05/26 08:01:38;;;;;;;7.03;1.00;;;;;;;;;;5014998;28;20128;-74
2022/05/26 08:04:07;;;;;;;4.15;0.85;;;;;;;;;;5013852;28;20046;-75
2022/05/26 08:06:33;;;;;;;8.75;1.17;;;;;;;;;;5014982;28;20132;-74
2022/05/26 08:08:59;;;;;;;4.22;0.80;;;;;;;;;;5014096;28;20488;-74
2022/05/26 08:11:25;;;;;;;5.55;0.90;;;;;;;;;;5012049;28;20058;-75
2022/05/26 08:13:51;;;;;;;5.53;0.90;;;;;;;;;;5013314;28;20042;-74
2022/05/26 08:16:17;;;;;;;5.50;0.90;;;;;;;;;;5011165;28;20080;-74
2022/05/26 08:18:43;;;;;;;5.35;1.10;;;;;;;;;;5011820;28;20046;-74
2022/05/26 08:21:16;;;;;;;5.65;1.00;;;;;;;;;;5015244;28;20057;-74
2022/05/26 08:23:42;;;;;;;6.22;1.10;;;;;;;;;;5009632;28;20046;-74
2022/05/26 08:26:08;;;;;;;6.20;1.15;;;;;;;;;;5013024;28;20038;-74
2022/05/26 08:28:34;;;;;;;5.30;0.98;;;;;;;;;;5014371;28;20492;-76
2022/05/26 08:31:01;;;;;;;6.05;1.10;;;;;;;;;;5013242;28;20125;-75
2022/05/26 08:33:27;;;;;;;7.15;1.20;;;;;;;;;;5013979;28;20045;-75
2022/05/26 08:36:00;;;;;;;6.28;1.50;;;;;;;;;;5015651;28;20052;-75
2022/05/26 08:38:26;;;;;;;7.38;1.17;;;;;;;;;;5013942;28;20042;-73
2022/05/26 08:40:52;;;;;;;7.00;1.00;;;;;;;;;;5014130;28;20122;-74
2022/05/26 08:43:24;;;;;;;10.13;1.10;;;;;;;;;;5011461;28;20053;-74
2022/05/26 08:45:51;;;;;;;5.50;0.88;;;;;;;;;;5012956;28;20045;-74
2022/05/26 08:48:32;;;;;;;5.30;0.90;;;;;;;;;;5013630;28;20107;-74
2022/05/26 08:50:58;;;;;;;5.78;1.00;;;;;;;;;;5015247;28;20075;-74
2022/05/26 08:53:28;;;;;;;7.93;1.25;;;;;;;;;;5011762;28;20037;-73
2022/05/26 08:55:55;;;;;;;7.10;1.33;;;;;;;;;;5010754;28;20042;-74
2022/05/26 08:58:27;;;;;;;5.80;0.77;;;;;;;;;;5008761;28;20039;-74
2022/05/26 09:00:54;;;;;;;4.60;0.88;;;;;;;;;;5010211;28;20046;-74
2022/05/26 09:03:24;;;;;;;6.38;1.00;;;;;;;;;;5010982;28;20103;-75
2022/05/26 09:06:02;;;;;;;5.95;1.10;;;;;;;;;;5003920;28;20053;-75
2022/05/26 09:14:03;;;;;;;7.93;1.00;;;;;;;;;;5009263;28;20038;-75
2022/05/26 09:16:31;;;;;;;4.85;0.90;;;;;;;;;;5010961;28;20308;-75
2022/05/26 09:19:13;;;;;;;7.43;1.13;;;;;;;;;;5010438;28;20129;-75
2022/05/26 09:21:39;;;;;;;6.18;0.82;;;;;;;;;;5010260;28;20049;-75
2022/05/26 09:24:30;;;;;;;4.25;0.90;;;;;;;;;;5011609;28;20049;-73
2022/05/26 09:26:58;;;;;;;4.95;1.10;;;;;;;;;;5011591;28;20099;-74
2022/05/26 09:29:26;;;;;;;5.68;0.90;;;;;;;;;;5008998;28;20503;-74
2022/05/26 09:31:52;;;;;;;5.80;0.98;;;;;;;;;;5027705;28;20081;-75
2022/05/26 09:34:20;;;;;;;5.57;0.90;;;;;;;;;;5013390;28;20041;-74
2022/05/26 09:36:52;;;;;;;4.38;1.02;;;;;;;;;;5012988;28;20125;-74
2022/05/26 09:39:23;;;;;;;5.47;0.73;;;;;;;;;;5012495;28;20065;-75
2022/05/26 09:41:51;;;;;;;7.38;1.60;;;;;;;;;;5010993;28;20045;-75
2022/05/26 09:44:22;;;;;;;5.47;0.82;;;;;;;;;;5012357;28;20101;-74
2022/05/26 09:46:48;;;;;;;;;;;;;;;;;;5013556;28;20142;-74
2022/05/26 09:49:14;;;;;;;3.92;0.82;;;;;;;;;;5012016;28;19933;-75
2022/05/26 09:51:46;;;;;;;6.80;1.10;;;;;;;;;;5010052;28;20702;-75
2022/05/26 09:54:21;;;;;;;7.68;0.88;;;;;;;;;;5009815;28;20058;-74
2022/05/26 09:56:47;;;;;;;5.93;0.80;;;;;;;;;;5012752;28;20088;-74
2022/05/26 09:59:23;;;;;;;5.80;1.00;;;;;;;;;;5008148;28;20038;-74
2022/05/26 10:01:51;;;;;;;4.60;0.95;;;;;;;;;;5005398;28;20042;-75
2022/05/26 10:04:20;;;;;;;4.22;1.05;;;;;;;;;;5009091;28;20050;-73
2022/05/26 10:06:49;;;;;;;5.90;0.93;;;;;;;;;;5012412;28;20073;-74
2022/05/26 10:09:15;;;;;;;6.20;0.90;;;;;;;;;;5013091;28;20046;-75
2022/05/26 10:11:45;;;;;;;6.57;0.90;;;;;;;;;;5008073;28;20057;-75
2022/05/26 10:14:29;;;;;;;8.10;1.05;;;;;;;;;;5007445;28;20124;-75
2022/05/26 10:16:58;;;;;;;4.43;0.85;;;;;;;;;;5011059;28;20073;-75
2022/05/26 10:19:36;;;;;;;3.13;0.55;;;;;;;;;;5011468;28;20050;-75
2022/05/26 10:22:21;;;;;;;3.75;0.82;;;;;;;;;;4996069;28;20050;-75
2022/05/26 10:25:06;;;;;;;5.90;0.80;;;;;;;;;;5000093;28;20440;-75
2022/05/26 10:27:41;;;;;;;4.68;0.85;;;;;;;;;;5001902;28;20053;-75
2022/05/26 10:30:13;;;;;;;5.13;0.77;;;;;;;;;;5011124;28;20511;-75
2022/05/26 10:33:00;;;;;;;3.90;0.70;;;;;;;;;;5008110;28;20050;-74
2022/05/26 10:35:27;;;;;;;5.00;0.90;;;;;;;;;;4975766;28;20408;-75
2022/05/26 10:38:16;;;;;;;3.08;0.70;;;;;;;;;;5011743;28;20053;-74
2022/05/26 10:40:58;;;;;;;3.88;0.70;;;;;;;;;;5009269;28;20050;-75
2022/05/26 10:43:26;;;;;;;3.88;0.63;;;;;;;;;;4999027;28;20042;-74
2022/05/26 10:45:54;;;;;;;7.35;0.80;;;;;;;;;;5010313;28;20046;-75
2022/05/26 10:48:38;;;;;;;4.75;0.75;;;;;;;;;;5011850;28;20042;-75
2022/05/26 10:51:05;;;;;;;4.47;0.80;;;;;;;;;;5012338;28;20078;-74
2022/05/26 10:53:34;;;;;;;5.20;0.70;;;;;;;;;;5013805;28;20066;-75
2022/05/26 10:56:19;;;;;;;4.82;0.80;;;;;;;;;;5014714;28;20073;-75
2022/05/26 10:58:48;;;;;;;3.60;0.80;;;;;;;;;;5010762;28;20030;-74
2022/05/26 11:01:25;;;;;;;6.45;0.90;;;;;;;;;;5014995;28;20132;-74
2022/05/26 11:03:54;;;;;;;5.10;0.90;;;;;;;;;;5016163;28;20053;-75
2022/05/26 11:06:27;;;;;;;4.75;0.82;;;;;;;;;;5015376;28;20053;-75
2022/05/26 11:08:57;;;;;;;5.40;1.08;;;;;;;;;;5012519;28;20472;-75
2022/05/26 11:11:32;;;;;;;6.68;0.98;;;;;;;;;;5012593;28;20054;-75
2022/05/26 11:17:23;;;;;;;4.63;1.00;;;;;;;;;;5016080;28;20045;-75
2022/05/26 11:19:52;;;;;;;6.05;1.10;;;;;;;;;;5015294;28;20045;-74
2022/05/26 11:22:18;;;;;;;9.88;1.30;;;;;;;;;;5015138;28;20403;-75
2022/05/26 11:24:51;;;;;;;5.70;1.30;;;;;;;;;;5014453;28;20489;-73
2022/05/26 11:27:23;;;;;;;6.65;1.10;;;;;;;;;;5014970;28;20049;-73
2022/05/26 11:29:49;;;;;;;;;;;;;;;;;;5017147;28;20103;-75
2022/05/26 11:38:15;;;;;;;5.25;1.15;;;;;;;;;;5016290;28;20054;-74
2022/05/26 11:41:00;;;;;;;5.57;1.00;;;;;;;;;;5007759;28;20120;-74
2022/05/26 11:43:28;;;;;;;9.07;1.27;;;;;;;;;;5012886;28;20042;-75
2022/05/26 11:45:55;;;;;;;6.75;1.38;;;;;;;;;;5015673;28;20176;-74
2022/05/26 11:48:33;;;;;;;5.93;1.27;;;;;;;;;;5011766;28;20455;-75
2022/05/26 11:50:59;;;;;;;6.13;1.20;;;;;;;;;;5013842;28;20044;-75
2022/05/26 11:53:31;;;;;;;7.03;1.20;;;;;;;;;;5012936;28;20042;-75
2022/05/26 11:56:04;;;;;;;4.72;1.20;;;;;;;;;;5015526;28;20046;-74
2022/05/26 11:58:42;;;;;;;7.65;1.60;;;;;;;;;;5010377;28;20038;-74
2022/05/26 12:01:14;;;;;;;8.05;1.60;;;;;;;;;;5012260;28;20054;-74
2022/05/26 12:03:50;;;;;;;7.50;1.38;;;;;;;;;;5013280;28;20049;-74
2022/05/26 12:06:17;;;;;;;6.43;1.25;;;;;;;;;;5012368;28;21267;-73
2022/05/26 12:08:55;;;;;;;3.78;0.82;;;;;;;;;;5014178;28;20046;-74
2022/05/26 12:11:41;;;;;;;5.13;1.02;;;;;;;;;;5012956;28;20066;-75
2022/05/26 12:14:08;;;;;;;10.00;1.15;;;;;;;;;;5014007;28;20500;-74
2022/05/26 12:16:34;;;;;;;6.53;1.05;;;;;;;;;;5017105;28;20053;-74
2022/05/26 12:19:04;;;;;;;4.85;0.90;;;;;;;;;;5008587;28;20128;-75
2022/05/26 12:21:31;;;;;;;7.50;1.20;;;;;;;;;;5000571;28;20034;-75
2022/05/26 12:23:58;;;;;;;6.47;1.08;;;;;;;;;;5007722;28;20080;-74
2022/05/26 12:26:43;;;;;;;6.68;1.00;;;;;;;;;;5014351;28;20049;-74
2022/05/26 12:29:28;;;;;;;7.50;1.08;;;;;;;;;;5011203;28;20121;-74
2022/05/26 12:32:05;;;;;;;8.23;1.08;;;;;;;;;;5012085;28;20443;-74
2022/05/26 12:34:36;;;;;;;6.10;0.98;;;;;;;;;;5012959;28;20054;-74
2022/05/26 12:37:04;;;;;;;6.65;1.05;;;;;;;;;;5013171;28;20038;-74
2022/05/26 12:39:43;;;;;;;6.53;1.27;;;;;;;;;;5013660;28;20041;-74
2022/05/26 12:42:12;;;;;;;5.75;0.98;;;;;;;;;;5011062;28;20050;-73
2022/05/26 12:44:44;;;;;;;5.68;1.02;;;;;;;;;;5007404;28;20492;-74
2022/05/26 12:47:22;;;;;;;5.63;0.90;;;;;;;;;;5012799;28;20073;-74
2022/05/26 12:49:48;;;;;;;6.63;1.15;;;;;;;;;;5013995;28;20104;-75
2022/05/26 12:52:18;;;;;;;5.07;0.90;;;;;;;;;;5012697;28;20444;-74
2022/05/26 12:54:50;;;;;;;9.27;1.20;;;;;;;;;;5003448;28;20050;-75
2022/05/26 12:57:21;;;;;;;10.50;1.42;;;;;;;;;;4994655;28;20050;-74
2022/05/26 12:59:47;;;;;;;6.57;1.10;;;;;;;;;;5005936;28;20448;-75
2022/05/26 13:02:14;;;;;;;4.22;1.13;;;;;;;;;;5003041;28;20296;-73
2022/05/26 13:04:40;;;;;;;6.00;1.50;;;;;;;;;;5004354;28;20111;-75
2022/05/26 13:07:07;;;;;;;6.97;1.40;;;;;;;;;;5003881;28;20045;-75
2022/05/26 13:09:40;;;;;;;3.35;0.80;;;;;;;;;;5002835;28;20080;-74
2022/05/26 13:12:07;;;;;;;5.47;1.02;;;;;;;;;;5006323;28;20158;-74
2022/05/26 13:14:38;;;;;;;4.68;0.82;;;;;;;;;;5003684;28;20389;-75
2022/05/26 13:17:11;;;;;;;7.57;1.38;;;;;;;;;;5003178;28;20180;-75
2022/05/26 13:19:41;;;;;;;6.57;1.25;;;;;;;;;;5007432;28;20053;-74
2022/05/26 13:22:11;;;;;;;5.47;1.35;;;;;;;;;;5013263;28;20121;-73
2022/05/26 13:24:37;;;;;;;8.30;1.40;;;;;;;;;;5013906;28;20396;-75
2022/05/26 13:27:05;;;;;;;7.05;1.30;;;;;;;;;;5011190;28;20053;-75
2022/05/26 13:29:33;;;;;;;8.82;1.25;;;;;;;;;;5012068;28;20570;-75
2022/05/26 13:34:50;;;;;;;7.97;1.20;;;;;;;;;;5011931;28;20054;-74
2022/05/26 13:37:16;;;;;;;7.70;1.27;;;;;;;;;;5002531;28;20049;-74
2022/05/26 13:39:42;;;;;;;7.00;1.20;;;;;;;;;;5011637;28;20042;-73
2022/05/26 13:42:08;;;;;;;5.18;1.20;;;;;;;;;;5013442;28;20073;-75
2022/05/26 13:44:52;;;;;;;7.57;1.30;;;;;;;;;;5012744;28;20459;-74
2022/05/26 13:47:18;;;;;;;4.85;1.08;;;;;;;;;;5013195;28;20488;-75
2022/05/26 13:49:55;;;;;;;4.78;0.75;;;;;;;;;;5013501;28;20037;-75
2022/05/26 13:52:23;;;;;;;6.15;0.90;;;;;;;;;;5011859;28;20169;-75
2022/05/26 13:54:54;;;;;;;7.25;0.88;;;;;;;;;;5012601;28;20125;-75
2022/05/26 13:57:32;;;;;;;7.47;1.13;;;;;;;;;;5011350;28;20054;-74
2022/05/26 13:59:59;;;;;;;6.13;1.00;;;;;;;;;;5013200;28;20056;-74
2022/05/26 14:02:29;;;;;;;7.80;1.23;;;;;;;;;;5001115;28;20042;-75
2022/05/26 14:05:08;;;;;;;5.68;1.08;;;;;;;;;;5012446;28;20050;-75
2022/05/26 14:07:40;;;;;;;9.30;1.40;;;;;;;;;;4993272;28;20132;-75
2022/05/26 14:10:15;;;;;;;6.97;1.27;;;;;;;;;;4999991;28;20042;-75
2022/05/26 14:12:42;;;;;;;6.88;1.20;;;;;;;;;;5012324;28;20100;-74
2022/05/26 14:15:09;;;;;;;7.50;1.23;;;;;;;;;;5012506;28;20041;-74
2022/05/26 14:17:36;;;;;;;9.00;1.27;;;;;;;;;;5006902;28;20060;-74
2022/05/26 14:20:04;;;;;;;5.30;1.13;;;;;;;;;;5011386;28;20157;-75
2022/05/26 14:22:31;;;;;;;7.20;1.40;;;;;;;;;;5007573;28;20401;-75
2022/05/26 14:24:58;;;;;;;6.95;1.10;;;;;;;;;;5010044;28;20038;-75
2022/05/26 14:27:51;;;;;;;6.72;1.35;;;;;;;;;;5015020;28;20034;-75
2022/05/26 14:30:32;;;;;;;8.48;1.08;;;;;;;;;;4998683;28;20054;-75
2022/05/26 14:32:58;;;;;;;;;;;;;;;;;;5012589;28;20374;-76
2022/05/26 14:35:24;;;;;;;8.23;1.42;;;;;;;;;;5010597;28;19928;-76
2022/05/26 14:37:50;;;;;;;7.28;1.38;;;;;;;;;;4993735;28;20045;-75
2022/05/26 14:40:16;;;;;;;7.50;1.50;;;;;;;;;;4995931;28;20451;-75
2022/05/26 14:42:43;;;;;;;12.48;1.50;;;;;;;;;;4992720;28;20456;-75
2022/05/26 14:45:20;;;;;;;7.47;1.40;;;;;;;;;;5007909;28;20052;-74
2022/05/26 14:47:46;;;;;;;8.80;1.40;;;;;;;;;;5012639;28;20100;-74
2022/05/26 14:50:13;;;;;;;7.97;1.40;;;;;;;;;;5012600;28;20497;-74
2022/05/26 14:52:40;;;;;;;9.40;1.73;;;;;;;;;;5012197;28;20053;-76
2022/05/26 14:57:53;;;;;;;6.65;1.45;;;;;;;;;;5014531;28;20046;-76
2022/05/26 15:00:20;;;;;;;7.53;1.40;;;;;;;;;;5011112;28;20108;-74
2022/05/26 15:02:46;;;;;;;9.25;1.67;;;;;;;;;;5013152;28;20034;-75
2022/05/26 15:05:12;;;;;;;8.50;1.60;;;;;;;;;;5011731;28;20054;-75
2022/05/26 15:07:39;;;;;;;9.70;1.75;;;;;;;;;;5010373;28;20050;-74
2022/05/26 15:10:05;;;;;;;9.30;2.00;;;;;;;;;;5011734;28;20419;-75
2022/05/26 15:12:32;;;;;;;9.55;1.88;;;;;;;;;;5012252;28;20050;-75
2022/05/26 15:14:58;;;;;;;7.90;1.48;;;;;;;;;;5012112;28;20099;-76
2022/05/26 15:17:24;;;;;;;7.82;1.38;;;;;;;;;;5009257;28;20471;-76
2022/05/26 15:19:52;;;;;;;9.98;1.60;;;;;;;;;;4992846;28;20050;-76
2022/05/26 15:22:18;;;;;;;7.85;1.77;;;;;;;;;;5013239;28;20415;-76
2022/05/26 15:24:44;;;;;;;8.38;1.52;;;;;;;;;;5011014;28;20050;-76
2022/05/26 15:27:14;;;;;;;7.45;1.90;;;;;;;;;;5013017;28;20046;-75
2022/05/26 15:29:40;;;;;;;8.45;1.65;;;;;;;;;;5011156;28;20053;-75
2022/05/26 15:32:07;;;;;;;12.10;1.85;;;;;;;;;;5015721;28;20179;-76
2022/05/26 15:34:34;;;;;;;10.65;1.90;;;;;;;;;;5009493;28;20437;-76
2022/05/26 15:37:07;;;;;;;8.93;1.85;;;;;;;;;;5011275;28;20092;-75